createdAt,value
2019-04-27T00:02:57.440Z,29.83
2019-04-27T00:05:38.516Z,30.60
2019-04-27T00:08:35.120Z,29.97
2019-04-27T00:11:08.842Z,30.23
2019-04-27T00:13:40.713Z,30.13
2019-04-27T00:16:27.942Z,29.53
2019-04-27T00:19:27.272Z,28.73
2019-04-27T00:22:16.405Z,29.57
2019-04-27T00:24:46.106Z,29.50
2019-04-27T00:27:15.889Z,30.50
2019-04-27T00:29:45.528Z,30.90
2019-04-27T00:32:15.218Z,28.83
2019-04-27T00:34:44.988Z,29.70
2019-04-27T00:37:36.469Z,28.80
2019-04-27T00:40:20.239Z,29.07
2019-04-27T00:42:49.857Z,29.90
2019-04-27T00:45:19.688Z,28.87
2019-04-27T00:47:57.441Z,29.03
2019-04-27T00:50:20.780Z,29.53
2019-04-27T00:52:50.466Z,29.13
2019-04-27T00:55:20.377Z,30.70
2019-04-27T00:58:18.781Z,28.47
2019-04-27T01:01:00.224Z,30.03
2019-04-27T01:03:38.952Z,29.87
2019-04-27T01:06:08.724Z,32.13
2019-04-27T01:08:38.330Z,30.93
2019-04-27T01:11:08.027Z,32.30
2019-04-27T01:13:37.656Z,32.60
2019-04-27T01:16:08.625Z,33.83
2019-04-27T01:18:38.847Z,31.63
2019-04-27T01:21:09.226Z,33.07
2019-04-27T01:23:39.080Z,33.27
2019-04-27T01:26:30.936Z,33.23
2019-04-27T01:29:04.584Z,33.00
2019-04-27T01:31:34.240Z,34.00
2019-04-27T01:34:04.092Z,32.77
2019-04-27T01:36:33.704Z,33.97
2019-04-27T01:39:04.157Z,32.83
2019-04-27T01:41:35.660Z,34.67
2019-04-27T01:44:05.407Z,33.57
2019-04-27T01:46:35.048Z,34.73
2019-04-27T01:49:05.143Z,35.10
2019-04-27T01:51:34.931Z,34.90
2019-04-27T01:54:07.062Z,35.47
2019-04-27T01:56:36.704Z,35.50
2019-04-27T01:59:06.414Z,33.90
2019-04-27T02:02:00.151Z,33.13
2019-04-27T02:04:39.602Z,34.83
2019-04-27T02:07:09.452Z,35.60
2019-04-27T02:09:39.060Z,36.70
2019-04-27T02:12:09.342Z,36.57
2019-04-27T02:14:39.136Z,36.80
2019-04-27T02:17:09.691Z,36.93
2019-04-27T02:19:39.364Z,38.50
2019-04-27T02:22:08.749Z,36.67
2019-04-27T02:24:38.985Z,36.10
2019-04-27T02:27:08.953Z,38.47
2019-04-27T02:30:06.625Z,37.93
2019-04-27T02:32:45.128Z,35.57
2019-04-27T02:35:15.532Z,36.93
2019-04-27T02:37:44.636Z,36.20
2019-04-27T02:40:20.377Z,37.23
2019-04-27T02:42:50.400Z,35.10
2019-04-27T02:45:22.218Z,34.77
2019-04-27T02:47:51.899Z,36.90
2019-04-27T02:50:21.291Z,36.10
2019-04-27T02:52:50.415Z,35.57
2019-04-27T02:55:20.000Z,34.17
2019-04-27T02:57:50.039Z,34.73
2019-04-27T03:00:20.602Z,34.20
2019-04-27T03:02:56.529Z,34.67
2019-04-27T03:05:25.722Z,35.07
2019-04-27T03:07:54.899Z,34.80
2019-04-27T03:10:26.541Z,34.53
2019-04-27T03:13:26.934Z,34.63
2019-04-27T03:16:15.271Z,34.30
2019-04-27T03:19:09.754Z,33.27
2019-04-27T03:21:29.714Z,33.37
2019-04-27T03:24:00.221Z,32.87
2019-04-27T03:26:50.560Z,34.60
2019-04-27T03:29:22.559Z,34.10
2019-04-27T03:31:54.088Z,34.50
2019-04-27T03:34:22.563Z,33.83
2019-04-27T03:36:52.298Z,34.47
2019-04-27T03:39:21.416Z,34.20
2019-04-27T03:41:52.884Z,33.60
2019-04-27T03:44:21.311Z,32.57
2019-04-27T03:46:50.536Z,32.67
2019-04-27T03:49:31.910Z,33.33
2019-04-27T03:52:02.950Z,32.43
2019-04-27T03:54:43.019Z,31.87
2019-04-27T03:57:19.900Z,33.40
2019-04-27T03:59:59.898Z,33.13
2019-04-27T04:02:30.262Z,33.87
2019-04-27T04:04:59.940Z,34.10
2019-04-27T04:07:30.121Z,32.73
2019-04-27T04:10:00.193Z,34.10
2019-04-27T04:12:45.788Z,32.63
2019-04-27T04:15:29.804Z,34.57
2019-04-27T04:17:59.547Z,33.67
2019-04-27T04:20:30.462Z,34.33
2019-04-27T04:23:03.189Z,34.50
2019-04-27T04:25:33.080Z,34.00
2019-04-27T04:28:01.524Z,33.07
2019-04-27T04:30:30.680Z,33.27
2019-04-27T04:33:00.082Z,32.90
2019-04-27T04:35:32.477Z,33.07
2019-04-27T04:38:00.440Z,32.00
2019-04-27T04:40:35.125Z,33.17
2019-04-27T04:43:23.512Z,30.63
2019-04-27T04:46:19.140Z,31.73
2019-04-27T04:48:50.361Z,33.00
2019-04-27T04:51:20.147Z,33.40
2019-04-27T04:53:51.868Z,34.07
2019-04-27T04:56:20.494Z,34.77
2019-04-27T04:58:49.823Z,35.70
2019-04-27T05:01:19.651Z,35.40
2019-04-27T05:03:49.083Z,34.97
2019-04-27T05:06:18.974Z,35.90
2019-04-27T05:08:49.417Z,35.83
2019-04-27T05:11:19.592Z,34.40
2019-04-27T05:13:49.396Z,35.87
2019-04-27T05:16:19.048Z,33.30
2019-04-27T05:18:49.554Z,35.80
2019-04-27T05:21:26.959Z,34.60
2019-04-27T05:23:56.059Z,34.70
2019-04-27T05:26:25.163Z,35.60
2019-04-27T05:28:54.296Z,36.40
2019-04-27T05:31:23.427Z,34.63
2019-04-27T05:33:53.012Z,37.57
2019-04-27T05:36:22.178Z,35.20
2019-04-27T05:38:51.297Z,36.00
2019-04-27T05:41:20.430Z,35.77
2019-04-27T05:44:10.728Z,36.53
2019-04-27T05:47:05.293Z,34.73
2019-04-27T05:49:40.991Z,35.90
2019-04-27T05:52:29.505Z,35.07
2019-04-27T05:54:59.282Z,33.37
2019-04-27T05:57:31.475Z,33.77
2019-04-27T06:00:02.060Z,31.93
2019-04-27T06:02:32.352Z,32.80
2019-04-27T06:05:01.482Z,31.77
2019-04-27T06:07:30.739Z,31.70
2019-04-27T06:10:00.097Z,31.70
2019-04-27T06:12:29.766Z,32.27
2019-04-27T06:15:00.014Z,31.90
2019-04-27T06:17:29.965Z,30.37
2019-04-27T06:19:59.794Z,31.47
2019-04-27T06:22:29.425Z,31.40
2019-04-27T06:25:00.053Z,30.60
2019-04-27T06:27:30.736Z,30.33
2019-04-27T06:30:00.158Z,31.30
2019-04-27T06:32:29.668Z,30.30
2019-04-27T06:34:59.265Z,29.47
2019-04-27T06:37:29.470Z,31.70
2019-04-27T06:39:59.724Z,29.80
2019-04-27T06:42:29.828Z,29.57
2019-04-27T06:44:59.903Z,30.00
2019-04-27T06:47:29.728Z,28.77
2019-04-27T06:49:59.916Z,29.67
2019-04-27T06:52:30.112Z,28.80
2019-04-27T06:55:00.649Z,29.03
2019-04-27T06:57:30.013Z,27.30
2019-04-27T06:59:59.290Z,29.07
2019-04-27T07:02:29.081Z,21.20
2019-04-27T07:04:59.241Z,24.03
2019-04-27T07:07:29.479Z,26.10
2019-04-27T07:09:59.155Z,28.10
2019-04-27T07:12:28.937Z,23.73
2019-04-27T07:14:59.193Z,20.47
2019-04-27T07:17:29.047Z,20.30
2019-04-27T07:19:59.515Z,24.47
2019-04-27T07:22:29.903Z,20.10
2019-04-27T07:25:00.176Z,18.73
2019-04-27T07:27:29.354Z,17.53
2019-04-27T07:30:00.862Z,17.90
2019-04-27T07:32:29.412Z,18.47
2019-04-27T07:34:58.691Z,17.37
2019-04-27T07:37:29.416Z,19.10
2019-04-27T07:39:59.195Z,17.50
2019-04-27T07:42:30.247Z,17.53
2019-04-27T07:45:06.221Z,17.53
2019-04-27T07:47:35.347Z,16.53
2019-04-27T07:50:04.852Z,17.57
2019-04-27T07:52:34.134Z,17.53
2019-04-27T07:55:03.347Z,16.07
2019-04-27T07:57:32.483Z,16.17
2019-04-27T08:00:01.601Z,15.90
2019-04-27T08:02:32.363Z,15.00
2019-04-27T08:05:01.500Z,16.20
2019-04-27T08:07:30.943Z,16.00
2019-04-27T08:10:01.709Z,16.97
2019-04-27T08:12:30.988Z,16.07
2019-04-27T08:15:00.194Z,14.37
2019-04-27T08:17:30.298Z,16.70
2019-04-27T08:19:59.932Z,15.57
2019-04-27T08:22:29.309Z,15.67
2019-04-27T08:24:59.459Z,16.30
2019-04-27T08:27:49.325Z,16.10
2019-04-27T08:30:40.581Z,15.07
2019-04-27T08:33:09.891Z,14.07
2019-04-27T08:35:42.085Z,12.67
2019-04-27T08:38:12.225Z,12.33
2019-04-27T08:40:41.368Z,12.57
2019-04-27T08:43:10.536Z,11.60
2019-04-27T08:45:39.717Z,12.40
2019-04-27T08:48:09.311Z,11.93
2019-04-27T08:50:41.908Z,11.30
2019-04-27T08:53:10.000Z,11.80
2019-04-27T08:55:39.627Z,11.77
2019-04-27T08:58:10.086Z,10.70
2019-04-27T09:00:39.579Z,10.60
2019-04-27T09:03:09.500Z,9.07
2019-04-27T09:05:39.109Z,10.13
2019-04-27T09:08:29.110Z,8.20
2019-04-27T09:11:18.977Z,7.70
2019-04-27T09:14:21.205Z,8.07
2019-04-27T09:17:00.267Z,6.67
2019-04-27T09:19:34.317Z,6.90
2019-04-27T09:22:16.146Z,6.43
2019-04-27T09:24:39.624Z,6.50
2019-04-27T09:27:09.615Z,5.77
2019-04-27T09:29:39.500Z,6.47
2019-04-27T09:32:09.220Z,6.37
2019-04-27T09:34:38.900Z,5.00
2019-04-27T09:37:08.615Z,5.23
2019-04-27T09:39:38.256Z,4.90
2019-04-27T09:42:08.014Z,5.00
2019-04-27T09:44:37.732Z,5.17
2019-04-27T09:47:07.356Z,4.50
2019-04-27T09:49:38.411Z,4.83
2019-04-27T09:52:08.503Z,4.70
2019-04-27T09:54:38.108Z,4.17
2019-04-27T09:57:07.752Z,3.60
2019-04-27T09:59:39.535Z,3.87
2019-04-27T10:02:09.008Z,3.77
2019-04-27T10:04:39.016Z,4.07
2019-04-27T10:07:08.814Z,4.23
2019-04-27T10:09:38.644Z,3.40
2019-04-27T10:12:09.471Z,3.57
2019-04-27T10:14:39.027Z,3.40
2019-04-27T10:17:09.064Z,3.10
2019-04-27T10:19:39.013Z,3.50
2019-04-27T10:22:08.766Z,3.23
2019-04-27T10:24:38.459Z,3.17
2019-04-27T10:27:09.199Z,3.53
2019-04-27T10:29:38.834Z,3.20
2019-04-27T10:32:09.926Z,2.73
2019-04-27T10:34:39.645Z,5.83
2019-04-27T10:37:10.960Z,4.47
2019-04-27T10:39:40.612Z,3.50
2019-04-27T10:42:10.283Z,2.33
2019-04-27T10:44:39.984Z,2.63
2019-04-27T10:47:09.636Z,2.80
2019-04-27T10:49:39.352Z,2.63
2019-04-27T10:52:09.023Z,2.07
2019-04-27T10:54:38.669Z,2.57
2019-04-27T10:57:08.355Z,2.37
2019-04-27T10:59:38.309Z,2.70
2019-04-27T11:02:07.997Z,2.13
2019-04-27T11:04:59.855Z,1.73
2019-04-27T11:07:33.324Z,2.00
2019-04-27T11:10:03.677Z,2.07
2019-04-27T11:12:33.381Z,2.57
2019-04-27T11:15:03.241Z,2.13
2019-04-27T11:17:32.851Z,1.93
2019-04-27T11:20:02.826Z,2.70
2019-04-27T11:22:33.760Z,1.93
2019-04-27T11:25:03.605Z,2.70
2019-04-27T11:27:33.220Z,2.00
2019-04-27T11:30:03.264Z,2.10
2019-04-27T11:32:34.609Z,2.77
2019-04-27T11:35:36.092Z,2.33
2019-04-27T11:38:06.187Z,1.53
2019-04-27T11:40:38.348Z,2.17
2019-04-27T11:43:08.135Z,2.00
2019-04-27T11:45:38.726Z,3.20
2019-04-27T11:48:08.339Z,2.70
2019-04-27T11:50:37.949Z,2.00
2019-04-27T11:53:19.492Z,2.30
2019-04-27T11:55:38.907Z,2.20
2019-04-27T11:58:08.505Z,2.40
2019-04-27T12:00:38.196Z,2.00
2019-04-27T12:03:07.835Z,1.80
2019-04-27T12:05:37.455Z,2.40
2019-04-27T12:08:07.054Z,2.73
2019-04-27T12:10:38.574Z,2.07
2019-04-27T12:13:08.216Z,9.17
2019-04-27T12:15:37.830Z,2.17
2019-04-27T12:18:09.080Z,2.03
2019-04-27T12:20:39.217Z,2.10
2019-04-27T12:23:09.014Z,2.67
2019-04-27T12:25:38.631Z,2.17
2019-04-27T12:28:15.192Z,2.13
2019-04-27T12:30:52.617Z,2.00
2019-04-27T12:33:22.351Z,1.97
2019-04-27T12:35:52.106Z,2.60
2019-04-27T12:38:22.054Z,1.70
2019-04-27T12:40:51.690Z,1.60
2019-04-27T12:43:22.686Z,1.90
2019-04-27T12:45:52.471Z,1.83
2019-04-27T12:48:21.731Z,2.23
2019-04-27T12:50:51.604Z,1.97
2019-04-27T12:53:50.821Z,1.37
2019-04-27T12:56:33.951Z,1.77
2019-04-27T12:59:12.316Z,1.80
2019-04-27T13:01:42.880Z,1.90
2019-04-27T13:04:12.095Z,1.63
2019-04-27T13:06:41.606Z,1.30
2019-04-27T13:09:10.800Z,1.63
2019-04-27T13:11:39.911Z,2.40
2019-04-27T13:14:09.012Z,1.70
2019-04-27T13:16:38.107Z,1.90
2019-04-27T13:19:07.354Z,1.77
2019-04-27T13:21:36.598Z,1.70
2019-04-27T13:24:06.955Z,1.30
2019-04-27T13:26:38.073Z,1.30
2019-04-27T13:29:07.331Z,1.10
2019-04-27T13:31:36.887Z,5.00
2019-04-27T13:34:06.120Z,6.30
2019-04-27T13:36:36.775Z,6.70
2019-04-27T13:39:06.716Z,7.57
2019-04-27T13:41:36.048Z,6.30
2019-04-27T13:44:06.592Z,6.47
2019-04-27T13:46:55.976Z,5.90
2019-04-27T13:49:40.734Z,4.50
2019-04-27T13:52:16.635Z,4.63
2019-04-27T13:54:45.948Z,3.90
2019-04-27T13:57:16.396Z,3.87
2019-04-27T13:59:46.780Z,3.53
2019-04-27T14:02:16.425Z,3.53
2019-04-27T14:04:46.274Z,3.50
2019-04-27T14:07:16.898Z,3.57
2019-04-27T14:09:46.550Z,3.00
2019-04-27T14:12:22.031Z,3.10
2019-04-27T14:14:52.066Z,2.67
2019-04-27T14:17:21.669Z,2.50
2019-04-27T14:19:51.277Z,2.60
2019-04-27T14:22:20.883Z,2.27
2019-04-27T14:24:50.124Z,2.40
2019-04-27T14:27:21.021Z,2.23
2019-04-27T14:29:50.107Z,2.77
2019-04-27T14:32:19.292Z,2.97
2019-04-27T14:34:50.406Z,2.50
2019-04-27T14:37:19.213Z,2.90
2019-04-27T14:39:48.350Z,3.30
2019-04-27T14:42:19.154Z,4.50
2019-04-27T14:44:49.155Z,3.60
2019-04-27T14:47:18.997Z,3.40
2019-04-27T14:49:49.203Z,2.80
2019-04-27T14:52:19.083Z,3.50
2019-04-27T14:54:50.843Z,3.20
2019-04-27T14:57:20.579Z,3.23
2019-04-27T14:59:50.456Z,4.27
2019-04-27T15:02:20.136Z,3.70
2019-04-27T15:04:50.068Z,3.70
2019-04-27T15:07:19.759Z,3.77
2019-04-27T15:09:53.528Z,4.10
2019-04-27T15:12:24.512Z,4.67
2019-04-27T15:14:53.283Z,4.90
2019-04-27T15:17:26.623Z,4.70
2019-04-27T15:20:00.231Z,5.37
2019-04-27T15:22:31.553Z,5.57
2019-04-27T15:25:13.021Z,5.50
2019-04-27T15:27:42.322Z,6.00
2019-04-27T15:30:18.972Z,5.80
2019-04-27T15:33:10.487Z,5.40
2019-04-27T15:35:44.131Z,5.30
2019-04-27T15:38:19.868Z,6.33
2019-04-27T15:41:08.808Z,5.57
2019-04-27T15:43:41.024Z,5.17
2019-04-27T15:46:10.714Z,4.43
2019-04-27T15:48:40.383Z,4.53
2019-04-27T15:51:17.228Z,4.87
2019-04-27T15:53:45.841Z,4.20
2019-04-27T15:56:13.178Z,4.10
2019-04-27T15:58:42.808Z,3.83
2019-04-27T16:01:12.898Z,4.40
2019-04-27T16:03:42.520Z,3.63
2019-04-27T16:06:12.234Z,4.00
2019-04-27T16:08:44.945Z,3.90
2019-04-27T16:11:16.398Z,3.33
2019-04-27T16:13:45.095Z,4.30
2019-04-27T16:16:15.803Z,4.53
2019-04-27T16:18:45.446Z,5.07
2019-04-27T16:21:15.412Z,4.57
2019-04-27T16:23:45.114Z,4.50
2019-04-27T16:26:15.265Z,4.87
2019-04-27T16:28:49.626Z,4.77
2019-04-27T16:31:18.651Z,4.50
2019-04-27T16:33:49.640Z,4.67
2019-04-27T16:36:19.878Z,5.23
2019-04-27T16:38:57.288Z,5.20
2019-04-27T16:41:28.112Z,5.03
2019-04-27T16:43:58.231Z,5.13
2019-04-27T16:46:29.123Z,5.30
2019-04-27T16:48:59.498Z,5.03
2019-04-27T16:51:35.908Z,5.77
2019-04-27T16:54:00.680Z,5.83
2019-04-27T16:56:30.437Z,6.50
2019-04-27T16:59:11.376Z,5.70
2019-04-27T17:01:32.587Z,5.30
2019-04-27T17:04:01.820Z,5.90
2019-04-27T17:06:31.383Z,5.97
2019-04-27T17:09:05.600Z,6.57
2019-04-27T17:11:33.412Z,6.57
2019-04-27T17:14:10.130Z,6.37
2019-04-27T17:16:52.355Z,5.10
2019-04-27T17:19:35.829Z,5.67
2019-04-27T17:22:05.511Z,4.47
2019-04-27T17:24:43.966Z,3.60
2019-04-27T17:27:11.024Z,4.90
2019-04-27T17:29:41.236Z,4.53
2019-04-27T17:32:30.299Z,5.80
2019-04-27T17:35:05.005Z,4.77
2019-04-27T17:37:33.789Z,6.40
2019-04-27T17:40:02.855Z,5.37
2019-04-27T17:42:32.950Z,6.03
2019-04-27T17:45:02.627Z,6.07
2019-04-27T17:47:32.540Z,6.20
2019-04-27T17:50:02.184Z,6.97
2019-04-27T17:52:32.856Z,6.40
2019-04-27T17:55:02.575Z,6.80
2019-04-27T17:57:32.187Z,5.97
2019-04-27T18:00:03.248Z,6.53
2019-04-27T18:02:38.955Z,7.07
2019-04-27T18:05:05.402Z,6.70
2019-04-27T18:07:39.161Z,8.03
2019-04-27T18:10:05.599Z,6.87
2019-04-27T18:12:34.775Z,6.63
2019-04-27T18:15:05.280Z,6.87
2019-04-27T18:17:34.747Z,6.00
2019-04-27T18:20:05.867Z,5.60
2019-04-27T18:22:39.790Z,5.70
2019-04-27T18:25:10.074Z,5.10
2019-04-27T18:27:48.218Z,4.27
2019-04-27T18:30:33.758Z,3.97
2019-04-27T18:33:02.247Z,4.80
2019-04-27T18:35:31.579Z,4.90
2019-04-27T18:38:01.933Z,4.17
2019-04-27T18:40:32.606Z,4.00
2019-04-27T18:43:06.490Z,4.80
2019-04-27T18:45:33.227Z,4.40
2019-04-27T18:48:13.534Z,4.50
2019-04-27T18:50:54.606Z,4.03
2019-04-27T18:53:26.515Z,5.03
2019-04-27T18:55:59.376Z,4.00
2019-04-27T18:58:26.716Z,4.60
2019-04-27T19:00:55.799Z,4.70
2019-04-27T19:03:24.896Z,3.83
2019-04-27T19:05:54.073Z,4.33
2019-04-27T19:08:23.230Z,3.73
2019-04-27T19:10:52.332Z,3.67
2019-04-27T19:13:21.537Z,4.20
2019-04-27T19:15:50.725Z,3.80
2019-04-27T19:18:20.300Z,3.80
2019-04-27T19:20:49.651Z,3.67
2019-04-27T19:23:19.806Z,3.30
2019-04-27T19:26:08.804Z,3.50
2019-04-27T19:28:45.496Z,2.73
2019-04-27T19:31:19.454Z,2.87
2019-04-27T19:33:48.628Z,3.03
2019-04-27T19:36:19.215Z,3.00
2019-04-27T19:38:49.754Z,3.13
2019-04-27T19:41:19.099Z,3.10
2019-04-27T19:43:48.865Z,3.10
2019-04-27T19:46:19.854Z,3.33
2019-04-27T19:48:49.948Z,2.97
2019-04-27T19:51:20.369Z,3.27
2019-04-27T19:53:49.673Z,2.47
2019-04-27T19:56:19.368Z,3.10
2019-04-27T19:58:54.209Z,2.80
2019-04-27T20:01:28.122Z,2.90
2019-04-27T20:04:04.843Z,2.90
2019-04-27T20:06:34.062Z,2.80
2019-04-27T20:09:11.067Z,2.70
2019-04-27T20:11:40.397Z,3.40
2019-04-27T20:14:11.052Z,3.50
2019-04-27T20:16:41.775Z,3.10
2019-04-27T20:19:11.588Z,3.50
2019-04-27T20:21:40.923Z,3.70
2019-04-27T20:24:11.676Z,3.83
2019-04-27T20:26:40.975Z,3.50
2019-04-27T20:29:11.823Z,3.47
2019-04-27T20:31:41.211Z,3.23
2019-04-27T20:34:10.719Z,4.30
2019-04-27T20:36:41.440Z,3.57
2019-04-27T20:39:11.702Z,3.53
2019-04-27T20:41:41.260Z,3.00
2019-04-27T20:44:12.389Z,3.67
2019-04-27T20:46:41.451Z,3.03
2019-04-27T20:49:18.920Z,4.10
2019-04-27T20:51:54.522Z,3.50
2019-04-27T20:54:23.716Z,3.43
2019-04-27T20:56:54.005Z,3.73
2019-04-27T20:59:23.640Z,3.37
2019-04-27T21:01:52.856Z,3.43
2019-04-27T21:04:24.965Z,2.80
2019-04-27T21:06:58.491Z,3.50
2019-04-27T21:09:27.589Z,3.70
2019-04-27T21:11:56.703Z,3.10
2019-04-27T21:14:25.841Z,2.67
2019-04-27T21:16:54.961Z,2.60
2019-04-27T21:19:24.065Z,3.03
2019-04-27T21:21:53.162Z,2.93
2019-04-27T21:24:22.772Z,3.60
2019-04-27T21:26:53.124Z,3.27
2019-04-27T21:29:22.230Z,3.70
2019-04-27T21:31:52.187Z,3.40
2019-04-27T21:34:21.301Z,3.60
2019-04-27T21:36:51.052Z,3.60
2019-04-27T21:39:21.699Z,3.70
2019-04-27T21:41:51.691Z,3.60
2019-04-27T21:44:21.784Z,3.07
2019-04-27T21:46:51.880Z,3.40
2019-04-27T21:49:22.708Z,3.97
2019-04-27T21:52:03.324Z,3.50
2019-04-27T21:54:34.113Z,3.67
2019-04-27T21:57:03.236Z,3.87
2019-04-27T21:59:33.496Z,3.27
2019-04-27T22:02:04.452Z,3.00
2019-04-27T22:04:33.554Z,3.23
2019-04-27T22:07:02.673Z,3.10
2019-04-27T22:09:31.781Z,4.20
2019-04-27T22:12:02.544Z,3.90
2019-04-27T22:14:31.870Z,4.00
2019-04-27T22:17:00.984Z,3.87
2019-04-27T22:19:31.112Z,14.50
2019-04-27T22:22:03.459Z,3.80
2019-04-27T22:24:35.845Z,3.77
2019-04-27T22:27:04.957Z,3.70
2019-04-27T22:29:34.435Z,3.40
2019-04-27T22:32:03.647Z,3.77
2019-04-27T22:34:32.811Z,3.37
2019-04-27T22:37:02.718Z,3.40
2019-04-27T22:39:38.365Z,3.30
2019-04-27T22:42:31.290Z,3.47
2019-04-27T22:45:07.433Z,3.77
2019-04-27T22:47:36.543Z,3.40
2019-04-27T22:50:05.665Z,3.20
2019-04-27T22:52:34.923Z,3.13
2019-04-27T22:55:04.432Z,3.87
2019-04-27T22:57:41.436Z,3.80
2019-04-27T23:00:28.745Z,3.93
2019-04-27T23:03:02.254Z,4.10
2019-04-27T23:05:31.958Z,3.90
2019-04-27T23:08:01.913Z,4.30
2019-04-27T23:10:31.577Z,4.03
2019-04-27T23:13:01.150Z,4.40
2019-04-27T23:15:36.571Z,4.20
2019-04-27T23:18:05.689Z,4.40
2019-04-27T23:20:34.804Z,4.20
2019-04-27T23:23:04.170Z,4.40
2019-04-27T23:25:33.299Z,5.10
2019-04-27T23:28:02.392Z,5.00
2019-04-27T23:30:41.719Z,5.27
2019-04-27T23:33:11.212Z,4.97
2019-04-27T23:35:41.374Z,6.00
2019-04-27T23:38:17.496Z,5.70
2019-04-27T23:40:41.816Z,6.10
2019-04-27T23:43:11.496Z,5.80
2019-04-27T23:45:41.910Z,6.70
2019-04-27T23:48:12.410Z,6.30
2019-04-27T23:50:43.840Z,7.27
2019-04-27T23:53:16.695Z,6.70
2019-04-27T23:55:45.808Z,6.77
2019-04-27T23:58:14.884Z,6.90
